createdAt,value
2018-12-05T00:01:31.500Z,96329.30
2018-12-05T00:04:01.912Z,96324.90
2018-12-05T00:06:32.266Z,96315.41
2018-12-05T00:09:02.518Z,96311.13
2018-12-05T00:11:34.781Z,96306.55
2018-12-05T00:14:05.699Z,96294.72
2018-12-05T00:16:36.023Z,96288.24
2018-12-05T00:19:06.456Z,96298.45
2018-12-05T00:21:36.759Z,96301.76
2018-12-05T00:24:06.981Z,96302.02
2018-12-05T00:26:37.290Z,96299.09
2018-12-05T00:29:07.549Z,96300.08
2018-12-05T00:31:37.712Z,96304.34
2018-12-05T00:34:08.044Z,96297.72
2018-12-05T00:36:38.367Z,96292.16
2018-12-05T00:39:10.066Z,96297.86
2018-12-05T00:41:40.260Z,96296.81
2018-12-05T00:44:10.504Z,96302.08
2018-12-05T00:46:40.897Z,96300.10
2018-12-05T00:49:11.193Z,96295.93
2018-12-05T00:51:41.547Z,96292.83
2018-12-05T00:54:11.990Z,96294.99
2018-12-05T00:56:42.298Z,96286.05
2018-12-05T00:59:12.641Z,96294.91
2018-12-05T01:01:43.070Z,96293.83
2018-12-05T01:04:13.428Z,96291.98
2018-12-05T01:06:44.414Z,96288.03
2018-12-05T01:09:14.803Z,96291.23
2018-12-05T01:11:45.068Z,96284.16
2018-12-05T01:14:15.354Z,96281.52
2018-12-05T01:16:45.714Z,96279.52
2018-12-05T01:19:16.072Z,96286.61
2018-12-05T01:21:46.464Z,96288.38
2018-12-05T01:24:16.792Z,96284.92
2018-12-05T01:26:46.985Z,96287.48
2018-12-05T01:29:17.701Z,96290.45
2018-12-05T01:31:48.250Z,96283.97
2018-12-05T01:34:19.747Z,96288.92
2018-12-05T01:36:49.929Z,96294.97
2018-12-05T01:39:20.373Z,96292.17
2018-12-05T01:41:50.617Z,96291.44
2018-12-05T01:44:20.932Z,96296.06
2018-12-05T01:46:51.125Z,96290.06
2018-12-05T01:49:21.454Z,96294.16
2018-12-05T01:51:51.892Z,96297.30
2018-12-05T01:54:22.109Z,96296.34
2018-12-05T01:56:52.445Z,96296.85
2018-12-05T01:59:22.771Z,96288.30
2018-12-05T02:01:52.967Z,96290.56
2018-12-05T02:04:23.239Z,96290.45
2018-12-05T02:06:53.611Z,96287.56
2018-12-05T02:09:24.211Z,96283.69
2018-12-05T02:11:54.578Z,96282.28
2018-12-05T02:14:25.004Z,96282.04
2018-12-05T02:16:55.904Z,96289.33
2018-12-05T02:19:26.793Z,96288.92
2018-12-05T02:21:57.097Z,96297.11
2018-12-05T02:24:27.535Z,96304.95
2018-12-05T02:26:57.750Z,96296.37
2018-12-05T02:29:32.361Z,96291.04
2018-12-05T02:32:02.590Z,96271.11
2018-12-05T02:34:34.235Z,96269.75
2018-12-05T02:37:04.767Z,96267.25
2018-12-05T02:39:35.009Z,96264.58
2018-12-05T02:42:05.319Z,96251.78
2018-12-05T02:44:35.653Z,96254.59
2018-12-05T02:47:06.173Z,96254.70
2018-12-05T02:49:36.629Z,96255.00
2018-12-05T02:52:07.009Z,96253.91
2018-12-05T02:54:37.758Z,96247.66
2018-12-05T02:57:07.967Z,96258.62
2018-12-05T02:59:38.213Z,96263.86
2018-12-05T03:02:08.635Z,96263.14
2018-12-05T03:04:40.502Z,96267.33
2018-12-05T03:07:10.903Z,96270.16
2018-12-05T03:09:41.246Z,96273.69
2018-12-05T03:12:11.433Z,96272.89
2018-12-05T03:14:41.875Z,96275.11
2018-12-05T03:17:12.251Z,96283.84
2018-12-05T03:19:42.425Z,96291.52
2018-12-05T03:22:12.839Z,96290.45
2018-12-05T03:24:43.193Z,96286.72
2018-12-05T03:27:13.589Z,96280.44
2018-12-05T03:29:43.929Z,96288.13
2018-12-05T03:32:16.184Z,96286.38
2018-12-05T03:34:46.438Z,96286.05
2018-12-05T03:37:16.613Z,96283.36
2018-12-05T03:39:46.814Z,96276.31
2018-12-05T03:42:17.190Z,96272.72
2018-12-05T03:44:47.713Z,96270.23
2018-12-05T03:47:17.943Z,96265.56
2018-12-05T03:49:53.399Z,96265.47
2018-12-05T03:52:23.790Z,96264.45
2018-12-05T03:54:54.058Z,96264.85
2018-12-05T03:57:24.443Z,96273.23
2018-12-05T03:59:54.673Z,96270.53
2018-12-05T04:02:24.961Z,96273.61
2018-12-05T04:04:55.191Z,96273.59
2018-12-05T04:07:25.429Z,96270.16
2018-12-05T04:09:56.162Z,96275.08
2018-12-05T04:12:26.362Z,96265.55
2018-12-05T04:14:56.778Z,96269.43
2018-12-05T04:17:27.264Z,96271.86
2018-12-05T04:19:57.658Z,96280.41
2018-12-05T04:22:28.040Z,96281.80
2018-12-05T04:24:58.332Z,96287.56
2018-12-05T04:27:28.610Z,96280.83
2018-12-05T04:29:58.988Z,96283.30
2018-12-05T04:32:29.289Z,96286.27
2018-12-05T04:34:59.529Z,96285.38
2018-12-05T04:37:29.833Z,96284.01
2018-12-05T04:40:00.393Z,96288.61
2018-12-05T04:42:30.780Z,96291.58
2018-12-05T04:45:01.017Z,96285.09
2018-12-05T04:47:32.035Z,96286.55
2018-12-05T04:50:03.762Z,96284.33
2018-12-05T04:52:34.343Z,96286.77
2018-12-05T04:55:04.734Z,96282.41
2018-12-05T04:57:35.052Z,96289.02
2018-12-05T05:00:06.545Z,96294.89
2018-12-05T05:02:36.949Z,96292.52
2018-12-05T05:05:07.574Z,96292.14
2018-12-05T05:07:37.880Z,96293.45
2018-12-05T05:10:08.377Z,96290.38
2018-12-05T05:12:38.740Z,96291.39
2018-12-05T05:15:09.171Z,96297.95
2018-12-05T05:17:39.488Z,96297.47
2018-12-05T05:20:09.730Z,96301.80
2018-12-05T05:22:39.949Z,96298.31
2018-12-05T05:25:10.191Z,96287.75
2018-12-05T05:27:45.915Z,96287.96
2018-12-05T05:30:12.875Z,96292.56
2018-12-05T05:32:43.179Z,96290.47
2018-12-05T05:35:13.490Z,96290.73
2018-12-05T05:37:43.805Z,96295.81
2018-12-05T05:40:14.028Z,96294.28
2018-12-05T05:42:44.380Z,96289.70
2018-12-05T05:45:14.901Z,96289.34
2018-12-05T05:47:45.327Z,96292.19
2018-12-05T05:50:15.570Z,96292.13
2018-12-05T05:52:45.906Z,96291.13
2018-12-05T05:55:16.166Z,96291.72
2018-12-05T05:57:46.445Z,96287.56
2018-12-05T06:00:16.851Z,96280.14
2018-12-05T06:02:47.183Z,96290.02
2018-12-05T06:05:17.488Z,96283.56
2018-12-05T06:07:47.707Z,96283.75
2018-12-05T06:10:18.113Z,96285.38
2018-12-05T06:12:48.454Z,96280.44
2018-12-05T06:15:18.699Z,96275.92
2018-12-05T06:17:48.939Z,96284.33
2018-12-05T06:20:19.295Z,96286.69
2018-12-05T06:22:49.611Z,96291.61
2018-12-05T06:25:20.369Z,96293.00
2018-12-05T06:27:50.720Z,96299.44
2018-12-05T06:30:20.944Z,96305.25
2018-12-05T06:32:51.307Z,96313.80
2018-12-05T06:35:21.797Z,96319.69
2018-12-05T06:37:52.119Z,96320.92
2018-12-05T06:40:22.435Z,96321.66
2018-12-05T06:42:52.911Z,96321.73
2018-12-05T06:45:23.332Z,96326.55
2018-12-05T06:47:53.828Z,96321.80
2018-12-05T06:50:24.154Z,96328.68
2018-12-05T06:52:54.555Z,96330.20
2018-12-05T06:55:24.890Z,96321.24
2018-12-05T06:57:55.399Z,96332.20
2018-12-05T07:00:25.934Z,96320.28
2018-12-05T07:02:56.248Z,96335.02
2018-12-05T07:05:26.595Z,96337.03
2018-12-05T07:07:57.020Z,96334.41
2018-12-05T07:10:27.264Z,96336.31
2018-12-05T07:12:57.669Z,96331.44
2018-12-05T07:15:28.055Z,96343.08
2018-12-05T07:17:58.275Z,96353.23
2018-12-05T07:20:28.624Z,96347.47
2018-12-05T07:22:58.973Z,96353.19
2018-12-05T07:25:29.449Z,96351.38
2018-12-05T07:27:59.680Z,96351.05
2018-12-05T07:30:30.040Z,96353.63
2018-12-05T07:33:00.425Z,96355.50
2018-12-05T07:35:30.778Z,96356.40
2018-12-05T07:38:01.324Z,96349.45
2018-12-05T07:40:31.626Z,96359.92
2018-12-05T07:43:02.047Z,96360.52
2018-12-05T07:45:32.822Z,96358.83
2018-12-05T07:48:03.198Z,96359.72
2018-12-05T07:50:33.592Z,96363.03
2018-12-05T07:53:03.944Z,96369.80
2018-12-05T07:55:34.327Z,96373.30
2018-12-05T07:58:05.125Z,96378.25
2018-12-05T08:00:35.732Z,96371.95
2018-12-05T08:03:06.354Z,96375.47
2018-12-05T08:05:36.690Z,96359.11
2018-12-05T08:08:07.024Z,96353.61
2018-12-05T08:10:37.854Z,96355.08
2018-12-05T08:13:08.289Z,96353.62
2018-12-05T08:15:38.693Z,96360.61
2018-12-05T08:18:09.052Z,96350.48
2018-12-05T08:20:39.383Z,96348.15
2018-12-05T08:23:09.765Z,96343.56
2018-12-05T08:25:40.906Z,96346.70
2018-12-05T08:28:11.550Z,96351.69
2018-12-05T08:30:42.282Z,96355.85
2018-12-05T08:33:12.654Z,96361.84
2018-12-05T08:35:44.211Z,96352.19
2018-12-05T08:38:14.613Z,96348.39
2018-12-05T08:40:44.921Z,96348.11
2018-12-05T08:43:15.333Z,96343.00
2018-12-05T08:45:45.666Z,96346.55
2018-12-05T08:48:16.095Z,96341.91
2018-12-05T08:50:47.548Z,96347.52
2018-12-05T08:53:18.000Z,96344.32
2018-12-05T08:55:48.512Z,96347.74
2018-12-05T08:58:19.007Z,96340.59
2018-12-05T09:00:49.263Z,96335.00
2018-12-05T09:03:19.548Z,96327.86
2018-12-05T09:05:49.887Z,96332.69
2018-12-05T09:08:20.203Z,96340.38
2018-12-05T09:10:50.658Z,96338.33
2018-12-05T09:13:21.090Z,96353.21
2018-12-05T09:15:51.545Z,96351.03
2018-12-05T09:18:21.922Z,96353.67
2018-12-05T09:20:52.272Z,96351.58
2018-12-05T09:23:22.539Z,96345.73
2018-12-05T09:25:52.996Z,96350.89
2018-12-05T09:28:23.391Z,96347.98
2018-12-05T09:30:53.633Z,96343.23
2018-12-05T09:33:23.923Z,96342.37
2018-12-05T09:35:55.333Z,96345.97
2018-12-05T09:38:25.828Z,96345.76
2018-12-05T09:40:56.179Z,96347.83
2018-12-05T09:43:26.827Z,96347.98
2018-12-05T09:45:57.350Z,96336.36
2018-12-05T09:48:27.640Z,96328.91
2018-12-05T09:50:57.972Z,96334.67
2018-12-05T09:53:28.461Z,96333.25
2018-12-05T09:55:59.153Z,96327.56
2018-12-05T09:58:29.620Z,96331.59
2018-12-05T10:01:00.347Z,96324.42
2018-12-05T10:03:30.684Z,96325.72
2018-12-05T10:06:01.002Z,96320.52
2018-12-05T10:08:32.256Z,96318.11
2018-12-05T10:11:02.696Z,96310.45
2018-12-05T10:13:32.996Z,96320.44
2018-12-05T10:16:03.655Z,96314.30
2018-12-05T10:18:34.096Z,96318.59
2018-12-05T10:21:04.521Z,96320.63
2018-12-05T10:23:34.794Z,96317.44
2018-12-05T10:26:05.588Z,96313.64
2018-12-05T10:28:36.001Z,96313.78
2018-12-05T10:31:06.490Z,96305.78
2018-12-05T10:33:36.828Z,96306.75
2018-12-05T10:36:07.279Z,96298.91
2018-12-05T10:38:37.897Z,96297.30
2018-12-05T10:41:08.255Z,96295.27
2018-12-05T10:43:38.839Z,96290.38
2018-12-05T10:46:09.197Z,96289.22
2018-12-05T10:48:40.667Z,96285.12
2018-12-05T10:51:11.238Z,96281.27
2018-12-05T10:53:41.461Z,96277.20
2018-12-05T10:56:11.695Z,96272.22
2018-12-05T10:58:42.112Z,96273.02
2018-12-05T11:01:17.754Z,96259.49
2018-12-05T11:03:48.348Z,96269.95
2018-12-05T11:06:27.574Z,96266.03
2018-12-05T11:09:02.969Z,96269.72
2018-12-05T11:11:40.492Z,96272.34
2018-12-05T11:14:15.932Z,96269.81
2018-12-05T11:16:52.245Z,96266.03
2018-12-05T11:19:27.805Z,96257.70
2018-12-05T11:22:03.146Z,96260.78
2018-12-05T11:24:35.283Z,96266.83
2018-12-05T11:27:06.074Z,96248.26
2018-12-05T11:29:36.295Z,96236.08
2018-12-05T11:32:06.629Z,96234.91
2018-12-05T11:34:37.132Z,96242.19
2018-12-05T11:37:07.388Z,96243.45
2018-12-05T11:39:37.659Z,96249.34
2018-12-05T11:42:08.111Z,96237.48
2018-12-05T11:44:38.408Z,96240.84
2018-12-05T11:47:08.868Z,96225.82
2018-12-05T11:49:40.242Z,96213.98
2018-12-05T11:52:10.780Z,96200.63
2018-12-05T11:54:41.125Z,96211.13
2018-12-05T11:57:11.405Z,96209.69
2018-12-05T11:59:41.999Z,96209.33
2018-12-05T12:02:12.356Z,96205.63
2018-12-05T12:04:43.298Z,96209.88
2018-12-05T12:07:13.603Z,96211.70
2018-12-05T12:09:43.811Z,96203.71
2018-12-05T12:12:19.345Z,96199.33
2018-12-05T12:14:49.650Z,96204.80
2018-12-05T12:17:19.954Z,96196.77
2018-12-05T12:19:50.157Z,96187.62
2018-12-05T12:22:20.575Z,96193.05
2018-12-05T12:24:50.842Z,96195.28
2018-12-05T12:27:21.197Z,96190.11
2018-12-05T12:29:51.668Z,96182.45
2018-12-05T12:32:21.936Z,96176.75
2018-12-05T12:34:52.233Z,96176.92
2018-12-05T12:37:22.585Z,96169.54
2018-12-05T12:39:52.797Z,96174.25
2018-12-05T12:42:23.139Z,96174.58
2018-12-05T12:44:53.487Z,96168.91
2018-12-05T12:47:23.799Z,96159.57
2018-12-05T12:49:53.995Z,96160.05
2018-12-05T12:52:24.440Z,96161.33
2018-12-05T12:54:54.794Z,96150.17
2018-12-05T12:57:25.227Z,96151.27
2018-12-05T12:59:55.559Z,96140.88
2018-12-05T13:02:25.827Z,96146.96
2018-12-05T13:04:56.048Z,96146.59
2018-12-05T13:07:26.291Z,96139.03
2018-12-05T13:09:56.737Z,96141.51
2018-12-05T13:12:32.308Z,96131.78
2018-12-05T13:15:03.166Z,96131.80
2018-12-05T13:17:33.592Z,96131.89
2018-12-05T13:20:04.537Z,96135.51
2018-12-05T13:22:34.843Z,96130.70
2018-12-05T13:25:05.655Z,96125.56
2018-12-05T13:27:36.113Z,96126.57
2018-12-05T13:30:06.902Z,96123.32
2018-12-05T13:32:37.453Z,96120.47
2018-12-05T13:35:08.003Z,96118.70
2018-12-05T13:37:38.495Z,96112.63
2018-12-05T13:40:08.943Z,96117.45
2018-12-05T13:42:39.396Z,96111.80
2018-12-05T13:45:10.014Z,96108.58
2018-12-05T13:47:40.450Z,96109.30
2018-12-05T13:50:10.645Z,96107.28
2018-12-05T13:52:40.868Z,96100.98
2018-12-05T13:55:11.095Z,96104.48
2018-12-05T13:57:41.485Z,96103.94
2018-12-05T14:00:11.959Z,96096.88
2018-12-05T14:02:42.927Z,96101.45
2018-12-05T14:05:13.510Z,96097.61
2018-12-05T14:07:45.087Z,96095.45
2018-12-05T14:10:15.500Z,96089.45
2018-12-05T14:12:45.731Z,96084.98
2018-12-05T14:15:16.150Z,96081.45
2018-12-05T14:17:46.350Z,96084.86
2018-12-05T14:20:16.691Z,96081.99
2018-12-05T14:22:47.122Z,96081.69
2018-12-05T14:25:17.806Z,96075.66
2018-12-05T14:27:48.323Z,96078.06
2018-12-05T14:30:18.718Z,96078.91
2018-12-05T14:32:49.125Z,96078.59
2018-12-05T14:35:19.482Z,96073.09
2018-12-05T14:37:49.915Z,96075.13
2018-12-05T14:40:20.239Z,96073.95
2018-12-05T14:42:50.668Z,96066.08
2018-12-05T14:45:20.944Z,96068.45
2018-12-05T14:47:51.188Z,96071.31
2018-12-05T14:50:21.545Z,96061.26
2018-12-05T14:52:53.105Z,96060.98
2018-12-05T14:55:23.497Z,96055.89
2018-12-05T14:57:53.916Z,96062.58
2018-12-05T15:00:24.351Z,96057.20
2018-12-05T15:02:54.785Z,96055.42
2018-12-05T15:05:25.086Z,96055.63
2018-12-05T15:07:55.449Z,96052.70
2018-12-05T15:10:26.015Z,96056.93
2018-12-05T15:12:56.470Z,96051.50
2018-12-05T15:15:26.794Z,96049.36
2018-12-05T15:17:57.032Z,96052.87
2018-12-05T15:20:28.323Z,96044.00
2018-12-05T15:22:58.815Z,96043.74
2018-12-05T15:25:29.327Z,96039.00
2018-12-05T15:27:59.643Z,96041.25
2018-12-05T15:30:30.343Z,96049.92
2018-12-05T15:33:01.015Z,96042.00
2018-12-05T15:35:31.378Z,96038.67
2018-12-05T15:38:02.032Z,96041.61
2018-12-05T15:40:32.547Z,96034.98
2018-12-05T15:43:02.815Z,96032.06
2018-12-05T15:45:33.191Z,96031.65
2018-12-05T15:48:03.613Z,96036.47
2018-12-05T15:50:33.942Z,96032.22
2018-12-05T15:53:04.425Z,96030.77
2018-12-05T15:55:34.953Z,96025.96
2018-12-05T15:58:05.732Z,96021.01
2018-12-05T16:00:36.315Z,96022.11
2018-12-05T16:03:06.534Z,96014.42
2018-12-05T16:05:38.048Z,96012.77
2018-12-05T16:08:08.822Z,96016.09
2018-12-05T16:10:39.311Z,96009.21
2018-12-05T16:13:09.860Z,96001.17
2018-12-05T16:15:41.483Z,96005.85
2018-12-05T16:18:12.768Z,96006.39
2018-12-05T16:20:43.914Z,96010.98
2018-12-05T16:23:15.016Z,96006.95
2018-12-05T16:25:46.609Z,95996.16
2018-12-05T16:28:16.927Z,95998.03
2018-12-05T16:30:47.117Z,95996.82
2018-12-05T16:33:17.692Z,95995.75
2018-12-05T16:35:48.146Z,96000.15
2018-12-05T16:38:18.422Z,96002.38
2018-12-05T16:40:48.807Z,95992.38
2018-12-05T16:43:19.251Z,95984.09
2018-12-05T16:45:49.802Z,95985.19
2018-12-05T16:48:20.171Z,95985.94
2018-12-05T16:50:50.552Z,95988.84
2018-12-05T16:53:21.064Z,95990.38
2018-12-05T16:55:51.395Z,95987.70
2018-12-05T16:58:21.938Z,95987.49
2018-12-05T17:00:52.336Z,95982.88
2018-12-05T17:03:22.726Z,95979.58
2018-12-05T17:05:53.326Z,95980.59
2018-12-05T17:08:23.691Z,95975.17
2018-12-05T17:10:54.165Z,95979.77
2018-12-05T17:13:24.540Z,95973.77
2018-12-05T17:15:55.127Z,95972.98
2018-12-05T17:18:25.634Z,95971.30
2018-12-05T17:20:56.251Z,95967.86
2018-12-05T17:23:27.646Z,95964.29
2018-12-05T17:25:58.073Z,95960.50
2018-12-05T17:28:28.579Z,95956.47
2018-12-05T17:30:59.074Z,95951.31
2018-12-05T17:33:29.539Z,95958.30
2018-12-05T17:36:00.039Z,95956.28
2018-12-05T17:38:30.405Z,95961.61
2018-12-05T17:41:00.871Z,95963.56
2018-12-05T17:43:31.120Z,95957.74
2018-12-05T17:46:01.482Z,95960.23
2018-12-05T17:48:31.870Z,95951.86
2018-12-05T17:51:02.184Z,95941.36
2018-12-05T17:53:32.632Z,95937.84
2018-12-05T17:56:02.929Z,95925.40
2018-12-05T17:58:33.300Z,95931.30
2018-12-05T18:01:03.563Z,95930.48
2018-12-05T18:03:34.019Z,95932.88
2018-12-05T18:06:04.517Z,95925.34
2018-12-05T18:08:40.034Z,95924.14
2018-12-05T18:11:10.497Z,95919.06
2018-12-05T18:13:41.390Z,95915.56
2018-12-05T18:16:11.654Z,95913.70
2018-12-05T18:18:43.049Z,95912.70
2018-12-05T18:21:13.240Z,95914.63
2018-12-05T18:23:43.492Z,95912.26
2018-12-05T18:26:13.669Z,95913.36
2018-12-05T18:28:43.948Z,95909.02
2018-12-05T18:31:14.319Z,95903.59
2018-12-05T18:33:44.714Z,95897.69
2018-12-05T18:36:14.949Z,95901.39
2018-12-05T18:38:45.233Z,95901.75
2018-12-05T18:41:15.640Z,95898.97
2018-12-05T18:43:46.051Z,95896.42
2018-12-05T18:46:16.464Z,95888.31
2018-12-05T18:48:46.710Z,95889.14
2018-12-05T18:51:16.946Z,95882.23
2018-12-05T18:53:47.212Z,95879.66
2018-12-05T18:56:17.532Z,95880.22
2018-12-05T18:58:47.869Z,95877.79
2018-12-05T19:01:18.498Z,95876.14
2018-12-05T19:03:48.812Z,95875.13
2018-12-05T19:06:19.199Z,95870.36
2018-12-05T19:08:49.469Z,95869.41
2018-12-05T19:11:19.695Z,95865.57
2018-12-05T19:13:55.250Z,95866.66
2018-12-05T19:16:26.445Z,95864.00
2018-12-05T19:18:57.749Z,95860.95
2018-12-05T19:21:28.006Z,95859.50
2018-12-05T19:23:58.168Z,95856.16
2018-12-05T19:26:28.666Z,95847.33
2018-12-05T19:28:58.982Z,95852.02
2018-12-05T19:31:29.219Z,95849.17
2018-12-05T19:34:00.108Z,95844.63
2018-12-05T19:36:30.599Z,95846.41
2018-12-05T19:39:01.096Z,95838.97
2018-12-05T19:41:33.497Z,95826.54
2018-12-05T19:44:03.838Z,95826.73
2018-12-05T19:46:34.071Z,95826.05
2018-12-05T19:49:05.008Z,95822.88
2018-12-05T19:51:35.212Z,95820.31
2018-12-05T19:54:05.604Z,95821.67
2018-12-05T19:56:35.917Z,95822.75
2018-12-05T19:59:06.270Z,95823.77
2018-12-05T20:01:36.539Z,95821.96
2018-12-05T20:04:07.024Z,95819.77
2018-12-05T20:06:37.190Z,95819.55
2018-12-05T20:09:09.390Z,95817.84
2018-12-05T20:11:39.617Z,95806.38
2018-12-05T20:14:12.276Z,95802.33
2018-12-05T20:16:43.600Z,95791.48
2018-12-05T20:19:13.885Z,95800.95
2018-12-05T20:21:44.108Z,95793.92
2018-12-05T20:24:14.368Z,95787.63
2018-12-05T20:26:44.674Z,95775.39
2018-12-05T20:29:15.081Z,95781.81
2018-12-05T20:31:45.961Z,95772.05
2018-12-05T20:34:25.420Z,95758.86
2018-12-05T20:36:56.655Z,95765.42
2018-12-05T20:39:29.667Z,95778.13
2018-12-05T20:42:03.910Z,95778.02
2018-12-05T20:44:34.350Z,95778.23
2018-12-05T20:47:04.915Z,95776.85
2018-12-05T20:49:35.310Z,95772.89
2018-12-05T20:52:05.545Z,95776.93
2018-12-05T20:54:35.824Z,95770.30
2018-12-05T20:57:06.082Z,95762.78
2018-12-05T20:59:36.356Z,95761.48
2018-12-05T21:02:06.878Z,95761.98
2018-12-05T21:04:37.125Z,95755.69
2018-12-05T21:07:07.540Z,95763.31
2018-12-05T21:09:37.808Z,95761.97
2018-12-05T21:12:08.063Z,95761.02
2018-12-05T21:14:38.664Z,95754.27
2018-12-05T21:17:17.192Z,95749.88
2018-12-05T21:19:47.656Z,95753.00
2018-12-05T21:22:18.088Z,95746.66
2018-12-05T21:24:48.367Z,95747.59
2018-12-05T21:27:18.719Z,95738.84
2018-12-05T21:29:48.930Z,95738.67
2018-12-05T21:32:19.294Z,95744.20
2018-12-05T21:34:50.070Z,95748.43
2018-12-05T21:37:20.419Z,95748.60
2018-12-05T21:39:50.712Z,95737.28
2018-12-05T21:42:21.798Z,95735.69
2018-12-05T21:44:52.338Z,95730.34
2018-12-05T21:47:22.612Z,95721.09
2018-12-05T21:49:53.175Z,95713.44
2018-12-05T21:52:23.387Z,95713.16
2018-12-05T21:54:53.740Z,95719.17
2018-12-05T21:57:24.167Z,95712.48
2018-12-05T21:59:54.507Z,95708.38
2018-12-05T22:02:24.997Z,95706.94
2018-12-05T22:04:55.209Z,95697.73
2018-12-05T22:07:25.521Z,95692.47
2018-12-05T22:09:55.897Z,95696.25
2018-12-05T22:12:26.188Z,95692.91
2018-12-05T22:14:56.536Z,95697.92
2018-12-05T22:17:26.840Z,95696.67
2018-12-05T22:19:57.264Z,95705.02
2018-12-05T22:22:27.606Z,95694.59
2018-12-05T22:24:59.942Z,95691.00
2018-12-05T22:27:30.253Z,95673.95
2018-12-05T22:30:00.512Z,95680.02
2018-12-05T22:32:30.918Z,95678.17
2018-12-05T22:35:01.175Z,95663.73
2018-12-05T22:37:31.448Z,95645.72
2018-12-05T22:40:01.811Z,95654.67
2018-12-05T22:42:32.121Z,95669.47
2018-12-05T22:45:02.367Z,95669.09
2018-12-05T22:47:32.765Z,95656.87
2018-12-05T22:50:03.119Z,95661.96
2018-12-05T22:52:33.414Z,95651.00
2018-12-05T22:55:05.186Z,95638.41
2018-12-05T22:57:35.475Z,95627.08
2018-12-05T23:00:12.003Z,95625.26
2018-12-05T23:02:44.321Z,95616.41
2018-12-05T23:05:14.824Z,95618.08
2018-12-05T23:07:45.177Z,95622.43
2018-12-05T23:10:15.739Z,95634.80
2018-12-05T23:13:12.959Z,95647.93
2018-12-05T23:15:43.223Z,95662.95
2018-12-05T23:18:13.714Z,95663.52
2018-12-05T23:20:43.898Z,95651.41
2018-12-05T23:23:14.262Z,95651.10
2018-12-05T23:25:44.591Z,95655.48
2018-12-05T23:28:14.900Z,95647.00
2018-12-05T23:30:45.362Z,95656.20
2018-12-05T23:33:15.766Z,95648.23
2018-12-05T23:35:46.116Z,95641.83
2018-12-05T23:38:16.481Z,95627.97
2018-12-05T23:40:46.742Z,95631.36
2018-12-05T23:43:17.049Z,95643.76
2018-12-05T23:45:47.284Z,95644.38
2018-12-05T23:48:17.590Z,95624.56
2018-12-05T23:50:47.864Z,95626.59
2018-12-05T23:53:18.062Z,95620.47
2018-12-05T23:55:48.459Z,95623.89
2018-12-05T23:58:18.676Z,95610.44
